createdAt,value
2019-05-29T00:02:15.426Z,81.38
2019-05-29T00:04:45.485Z,81.59
2019-05-29T00:07:15.593Z,81.34
2019-05-29T00:09:45.679Z,81.47
2019-05-29T00:12:19.675Z,81.48
2019-05-29T00:14:47.631Z,81.96
2019-05-29T00:17:18.761Z,81.95
2019-05-29T00:19:48.965Z,81.52
2019-05-29T00:22:19.043Z,82.41
2019-05-29T00:24:49.088Z,82.00
2019-05-29T00:27:19.149Z,81.35
2019-05-29T00:29:49.220Z,82.35
2019-05-29T00:32:19.300Z,81.98
2019-05-29T00:34:49.379Z,82.09
2019-05-29T00:37:19.423Z,81.70
2019-05-29T00:39:49.508Z,83.23
2019-05-29T00:42:19.562Z,84.39
2019-05-29T00:44:49.634Z,84.64
2019-05-29T00:47:19.699Z,85.17
2019-05-29T00:49:49.820Z,84.59
2019-05-29T00:52:19.903Z,85.59
2019-05-29T00:54:49.967Z,85.39
2019-05-29T00:57:20.036Z,86.04
2019-05-29T00:59:50.136Z,85.12
2019-05-29T01:02:20.204Z,83.50
2019-05-29T01:04:50.304Z,83.09
2019-05-29T01:07:20.579Z,82.98
2019-05-29T01:09:50.733Z,83.13
2019-05-29T01:12:21.263Z,83.06
2019-05-29T01:14:51.486Z,83.31
2019-05-29T01:17:23.702Z,83.11
2019-05-29T01:19:53.397Z,83.18
2019-05-29T01:22:23.492Z,84.37
2019-05-29T01:24:53.571Z,83.88
2019-05-29T01:27:23.621Z,84.91
2019-05-29T01:29:53.693Z,84.39
2019-05-29T01:32:23.864Z,84.65
2019-05-29T01:34:53.953Z,84.13
2019-05-29T01:37:24.351Z,84.26
2019-05-29T01:39:54.653Z,84.50
2019-05-29T01:42:25.003Z,83.44
2019-05-29T01:45:07.168Z,84.28
2019-05-29T01:47:28.008Z,85.01
2019-05-29T01:49:58.200Z,84.95
2019-05-29T01:52:28.252Z,84.78
2019-05-29T01:54:58.315Z,84.82
2019-05-29T01:57:28.394Z,85.23
2019-05-29T01:59:58.491Z,85.49
2019-05-29T02:02:28.549Z,84.73
2019-05-29T02:04:58.627Z,85.14
2019-05-29T02:07:28.693Z,85.99
2019-05-29T02:09:58.766Z,85.61
2019-05-29T02:12:43.798Z,85.47
2019-05-29T02:15:23.854Z,85.84
2019-05-29T02:17:46.368Z,85.76
2019-05-29T02:20:16.987Z,86.43
2019-05-29T02:22:47.107Z,86.54
2019-05-29T02:25:19.655Z,86.87
2019-05-29T02:27:50.734Z,86.72
2019-05-29T02:30:23.530Z,86.35
2019-05-29T02:32:53.650Z,86.35
2019-05-29T02:35:24.831Z,86.33
2019-05-29T02:37:55.756Z,85.80
2019-05-29T02:40:28.132Z,85.97
2019-05-29T02:42:57.782Z,85.84
2019-05-29T02:45:50.884Z,86.13
2019-05-29T02:47:59.871Z,85.73
2019-05-29T02:50:31.308Z,84.98
2019-05-29T02:53:01.598Z,85.20
2019-05-29T02:55:31.746Z,84.25
2019-05-29T02:58:01.872Z,84.69
2019-05-29T03:00:54.428Z,84.87
2019-05-29T03:03:26.502Z,85.46
2019-05-29T03:05:57.492Z,85.34
2019-05-29T03:08:31.162Z,84.29
2019-05-29T03:10:59.744Z,84.61
2019-05-29T03:13:31.604Z,84.43
2019-05-29T03:16:10.334Z,84.52
2019-05-29T03:18:35.136Z,84.56
2019-05-29T03:21:05.397Z,84.06
2019-05-29T03:23:36.370Z,83.82
2019-05-29T03:26:07.107Z,84.71
2019-05-29T03:28:38.195Z,84.19
2019-05-29T03:31:08.723Z,85.12
2019-05-29T03:33:47.806Z,84.03
2019-05-29T03:36:10.939Z,84.48
2019-05-29T03:38:41.086Z,84.26
2019-05-29T03:41:11.285Z,84.63
2019-05-29T03:43:41.615Z,85.14
2019-05-29T03:46:29.823Z,85.06
2019-05-29T03:48:46.947Z,84.97
2019-05-29T03:51:17.222Z,85.36
2019-05-29T03:53:47.395Z,85.15
2019-05-29T03:56:17.472Z,84.56
2019-05-29T03:58:47.729Z,84.74
2019-05-29T04:01:18.118Z,84.59
2019-05-29T04:03:48.308Z,85.59
2019-05-29T04:06:18.812Z,85.28
2019-05-29T04:08:50.573Z,85.01
2019-05-29T04:11:21.184Z,84.91
2019-05-29T04:13:51.491Z,85.23
2019-05-29T04:16:23.534Z,85.04
2019-05-29T04:18:55.617Z,84.68
2019-05-29T04:21:27.939Z,84.54
2019-05-29T04:24:00.441Z,84.86
2019-05-29T04:26:33.939Z,84.56
2019-05-29T04:29:04.686Z,84.01
2019-05-29T04:31:36.356Z,84.10
2019-05-29T04:34:06.811Z,83.55
2019-05-29T04:36:38.516Z,83.32
2019-05-29T04:39:08.718Z,82.49
2019-05-29T04:41:39.340Z,81.81
2019-05-29T04:44:09.494Z,82.05
2019-05-29T04:46:41.243Z,82.47
2019-05-29T04:49:11.297Z,81.88
2019-05-29T04:51:41.542Z,82.27
2019-05-29T04:54:11.622Z,82.01
2019-05-29T04:56:41.801Z,81.70
2019-05-29T04:59:11.886Z,81.24
2019-05-29T05:01:42.088Z,81.61
2019-05-29T05:04:12.143Z,81.24
2019-05-29T05:06:42.274Z,72.88
2019-05-29T05:09:12.332Z,61.21
2019-05-29T05:11:42.787Z,54.48
2019-05-29T05:14:12.862Z,53.25
2019-05-29T05:16:42.919Z,50.64
2019-05-29T05:19:13.034Z,49.84
2019-05-29T05:21:43.163Z,51.69
2019-05-29T05:24:13.257Z,47.75
2019-05-29T05:26:43.363Z,52.18
2019-05-29T05:29:13.499Z,56.32
2019-05-29T05:31:43.755Z,59.81
2019-05-29T05:34:14.253Z,61.28
2019-05-29T05:36:44.413Z,57.45
2019-05-29T05:39:14.501Z,48.96
2019-05-29T05:41:46.959Z,44.94
2019-05-29T05:44:17.027Z,46.06
2019-05-29T05:46:47.118Z,45.24
2019-05-29T05:49:17.233Z,45.81
2019-05-29T05:51:48.050Z,45.98
2019-05-29T05:54:18.128Z,44.73
2019-05-29T05:56:48.229Z,44.08
2019-05-29T05:59:18.314Z,41.79
2019-05-29T06:01:48.431Z,41.13
2019-05-29T06:04:21.400Z,40.70
2019-05-29T06:06:53.005Z,43.71
2019-05-29T06:09:23.131Z,42.01
2019-05-29T06:11:53.160Z,45.80
2019-05-29T06:14:23.264Z,49.88
2019-05-29T06:16:55.725Z,51.25
2019-05-29T06:19:25.837Z,46.66
2019-05-29T06:21:55.926Z,46.68
2019-05-29T06:24:26.082Z,49.18
2019-05-29T06:26:57.771Z,51.90
2019-05-29T06:29:29.322Z,51.93
2019-05-29T06:31:59.421Z,52.55
2019-05-29T06:34:29.503Z,52.52
2019-05-29T06:36:59.564Z,52.03
2019-05-29T06:39:29.675Z,51.52
2019-05-29T06:41:59.734Z,52.83
2019-05-29T06:44:29.832Z,51.34
2019-05-29T06:46:59.930Z,47.67
2019-05-29T06:49:30.030Z,44.04
2019-05-29T06:52:00.130Z,44.38
2019-05-29T06:54:30.221Z,46.22
2019-05-29T06:57:00.311Z,44.57
2019-05-29T06:59:30.411Z,45.13
2019-05-29T07:02:00.472Z,47.76
2019-05-29T07:04:30.823Z,46.60
2019-05-29T07:07:00.863Z,45.29
2019-05-29T07:09:30.970Z,46.97
2019-05-29T07:12:01.042Z,48.53
2019-05-29T07:14:34.721Z,47.48
2019-05-29T07:17:04.850Z,46.55
2019-05-29T07:19:48.939Z,49.04
2019-05-29T07:22:06.738Z,48.73
2019-05-29T07:24:37.069Z,48.60
2019-05-29T07:27:07.319Z,46.94
2019-05-29T07:29:37.435Z,46.45
2019-05-29T07:32:07.543Z,47.66
2019-05-29T07:34:52.675Z,49.92
2019-05-29T07:37:09.413Z,49.71
2019-05-29T07:39:39.523Z,49.60
2019-05-29T07:42:09.564Z,48.63
2019-05-29T07:44:39.996Z,48.56
2019-05-29T07:47:10.226Z,50.42
2019-05-29T07:49:43.501Z,52.00
2019-05-29T07:52:12.154Z,51.67
2019-05-29T07:54:43.649Z,51.64
2019-05-29T07:57:13.900Z,52.81
2019-05-29T07:59:44.667Z,51.93
2019-05-29T08:02:14.862Z,52.20
2019-05-29T08:04:45.217Z,50.56
2019-05-29T08:07:15.306Z,48.36
2019-05-29T08:09:45.685Z,47.45
2019-05-29T08:12:15.757Z,49.54
2019-05-29T08:14:45.917Z,48.54
2019-05-29T08:17:15.962Z,49.12
2019-05-29T08:19:59.280Z,48.34
2019-05-29T08:22:33.257Z,48.17
2019-05-29T08:24:51.098Z,47.95
2019-05-29T08:27:21.286Z,50.73
2019-05-29T08:29:51.387Z,50.26
2019-05-29T08:32:21.489Z,51.33
2019-05-29T08:34:51.654Z,49.16
2019-05-29T08:37:21.773Z,49.29
2019-05-29T08:39:51.890Z,48.38
2019-05-29T08:42:23.811Z,49.26
2019-05-29T08:44:53.785Z,49.90
2019-05-29T08:47:23.859Z,49.05
2019-05-29T08:49:54.618Z,48.62
2019-05-29T08:52:24.821Z,49.15
2019-05-29T08:54:54.922Z,48.37
2019-05-29T08:57:25.016Z,48.73
2019-05-29T08:59:55.099Z,46.19
2019-05-29T09:02:25.204Z,46.01
2019-05-29T09:04:55.285Z,45.34
2019-05-29T09:07:25.370Z,43.06
2019-05-29T09:09:55.462Z,42.26
2019-05-29T09:12:25.546Z,41.91
2019-05-29T09:14:55.683Z,41.34
2019-05-29T09:17:25.920Z,42.36
2019-05-29T09:19:55.995Z,41.64
2019-05-29T09:22:26.148Z,40.71
2019-05-29T09:24:56.214Z,38.73
2019-05-29T09:27:26.650Z,40.58
2019-05-29T09:29:56.757Z,41.90
2019-05-29T09:32:48.324Z,43.67
2019-05-29T09:34:58.654Z,43.05
2019-05-29T09:37:28.759Z,44.96
2019-05-29T09:39:58.820Z,44.82
2019-05-29T09:42:28.919Z,46.33
2019-05-29T09:44:58.991Z,46.30
2019-05-29T09:47:29.105Z,47.11
2019-05-29T09:49:59.202Z,45.27
2019-05-29T09:52:30.798Z,42.01
2019-05-29T09:55:02.493Z,38.54
2019-05-29T09:57:32.787Z,40.11
2019-05-29T10:00:04.185Z,39.75
2019-05-29T10:02:34.494Z,40.27
2019-05-29T10:05:05.074Z,41.69
2019-05-29T10:07:35.171Z,42.31
2019-05-29T10:10:06.125Z,44.66
2019-05-29T10:12:36.243Z,46.18
2019-05-29T10:15:07.358Z,47.81
2019-05-29T10:17:37.538Z,47.02
2019-05-29T10:20:08.391Z,47.25
2019-05-29T10:22:38.474Z,46.87
2019-05-29T10:25:09.085Z,45.28
2019-05-29T10:27:39.173Z,45.24
2019-05-29T10:30:10.412Z,45.94
2019-05-29T10:32:42.450Z,45.40
2019-05-29T10:35:13.215Z,42.88
2019-05-29T10:37:44.475Z,40.80
2019-05-29T10:40:15.180Z,38.72
2019-05-29T10:42:45.311Z,37.58
2019-05-29T10:45:16.005Z,39.02
2019-05-29T10:47:47.307Z,38.58
2019-05-29T10:50:17.760Z,39.42
2019-05-29T10:52:47.960Z,42.11
2019-05-29T10:55:21.384Z,38.64
2019-05-29T10:57:52.919Z,37.96
2019-05-29T11:00:23.493Z,39.81
2019-05-29T11:02:55.861Z,39.46
2019-05-29T11:05:25.372Z,38.73
2019-05-29T11:07:55.949Z,39.19
2019-05-29T11:10:26.196Z,40.75
2019-05-29T11:12:56.800Z,40.78
2019-05-29T11:15:27.138Z,42.67
2019-05-29T11:17:57.446Z,43.12
2019-05-29T11:20:27.991Z,43.35
2019-05-29T11:22:58.091Z,45.22
2019-05-29T11:25:28.592Z,42.66
2019-05-29T11:27:58.831Z,41.63
2019-05-29T11:30:29.098Z,38.03
2019-05-29T11:33:01.462Z,40.47
2019-05-29T11:35:31.082Z,38.62
2019-05-29T11:38:01.186Z,38.60
2019-05-29T11:40:31.567Z,38.08
2019-05-29T11:43:03.113Z,36.18
2019-05-29T11:45:35.599Z,39.21
2019-05-29T11:48:05.572Z,38.27
2019-05-29T11:50:35.716Z,38.25
2019-05-29T11:53:06.096Z,40.30
2019-05-29T11:55:36.148Z,39.82
2019-05-29T11:58:06.404Z,42.01
2019-05-29T12:00:36.489Z,42.48
2019-05-29T12:03:07.525Z,44.47
2019-05-29T12:05:37.589Z,44.06
2019-05-29T12:08:07.866Z,44.15
2019-05-29T12:10:38.057Z,43.52
2019-05-29T12:13:08.166Z,43.46
2019-05-29T12:15:38.275Z,44.64
2019-05-29T12:18:22.719Z,38.44
2019-05-29T12:20:40.272Z,36.57
2019-05-29T12:23:24.850Z,33.58
2019-05-29T12:25:42.207Z,32.11
2019-05-29T12:28:12.305Z,32.50
2019-05-29T12:30:42.418Z,32.29
2019-05-29T12:33:12.537Z,33.13
2019-05-29T12:35:42.625Z,31.89
2019-05-29T12:38:12.768Z,30.73
2019-05-29T12:40:42.895Z,32.75
2019-05-29T12:43:26.462Z,32.03
2019-05-29T12:45:44.829Z,32.11
2019-05-29T12:48:16.099Z,34.60
2019-05-29T12:50:46.666Z,35.93
2019-05-29T12:53:29.528Z,37.37
2019-05-29T12:55:48.656Z,36.34
2019-05-29T12:58:18.725Z,34.81
2019-05-29T13:00:48.939Z,37.13
2019-05-29T13:03:19.062Z,38.18
2019-05-29T13:05:49.139Z,38.13
2019-05-29T13:08:19.248Z,35.63
2019-05-29T13:10:50.823Z,33.28
2019-05-29T13:13:20.894Z,33.25
2019-05-29T13:15:51.213Z,35.03
2019-05-29T13:18:21.408Z,36.67
2019-05-29T13:20:51.523Z,36.82
2019-05-29T13:23:21.620Z,35.42
2019-05-29T13:25:51.767Z,35.12
2019-05-29T13:28:21.870Z,33.69
2019-05-29T13:30:51.994Z,30.76
2019-05-29T13:33:22.136Z,30.62
2019-05-29T13:35:52.402Z,29.65
2019-05-29T13:38:22.499Z,29.25
2019-05-29T13:40:52.658Z,25.83
2019-05-29T13:43:22.774Z,27.84
2019-05-29T13:45:52.909Z,25.37
2019-05-29T13:48:23.553Z,25.18
2019-05-29T13:50:53.685Z,25.67
2019-05-29T13:53:24.610Z,26.21
2019-05-29T13:55:57.739Z,26.50
2019-05-29T13:58:27.935Z,27.70
2019-05-29T14:00:58.227Z,26.92
2019-05-29T14:03:28.278Z,25.50
2019-05-29T14:05:58.743Z,26.20
2019-05-29T14:08:28.767Z,26.50
2019-05-29T14:10:59.199Z,25.82
2019-05-29T14:13:29.366Z,26.14
2019-05-29T14:16:00.568Z,25.72
2019-05-29T14:18:30.763Z,25.07
2019-05-29T14:21:00.977Z,25.62
2019-05-29T14:23:31.022Z,23.53
2019-05-29T14:26:02.217Z,24.46
2019-05-29T14:28:32.473Z,23.54
2019-05-29T14:31:03.767Z,24.04
2019-05-29T14:33:33.910Z,25.27
2019-05-29T14:36:05.843Z,24.11
2019-05-29T14:38:36.173Z,23.39
2019-05-29T14:41:06.272Z,22.66
2019-05-29T14:43:37.535Z,24.00
2019-05-29T14:46:08.092Z,23.77
2019-05-29T14:48:38.557Z,22.74
2019-05-29T14:51:08.705Z,24.11
2019-05-29T14:53:38.793Z,24.20
2019-05-29T14:56:08.923Z,23.77
2019-05-29T14:58:39.020Z,25.04
2019-05-29T15:01:09.225Z,24.48
2019-05-29T15:03:39.295Z,24.16
2019-05-29T15:06:09.735Z,26.90
2019-05-29T15:08:39.784Z,26.22
2019-05-29T15:11:10.093Z,26.87
2019-05-29T15:13:40.250Z,26.79
2019-05-29T15:16:10.873Z,25.57
2019-05-29T15:18:41.100Z,26.48
2019-05-29T15:21:11.219Z,25.90
2019-05-29T15:23:41.355Z,26.69
2019-05-29T15:26:11.735Z,25.77
2019-05-29T15:28:41.875Z,26.01
2019-05-29T15:31:12.417Z,25.08
2019-05-29T15:33:42.594Z,24.79
2019-05-29T15:36:13.178Z,23.97
2019-05-29T15:38:43.363Z,24.33
2019-05-29T15:41:14.773Z,23.58
2019-05-29T15:43:45.013Z,22.87
2019-05-29T15:46:16.426Z,22.75
2019-05-29T15:48:46.948Z,25.48
2019-05-29T15:51:17.179Z,26.21
2019-05-29T15:53:47.395Z,26.24
2019-05-29T15:56:27.165Z,27.23
2019-05-29T15:58:49.345Z,27.36
2019-05-29T16:01:19.455Z,27.96
2019-05-29T16:03:49.511Z,26.30
2019-05-29T16:06:19.648Z,26.85
2019-05-29T16:08:49.775Z,28.22
2019-05-29T16:11:19.908Z,28.40
2019-05-29T16:13:50.001Z,28.38
2019-05-29T16:16:20.106Z,29.89
2019-05-29T16:18:50.197Z,27.72
2019-05-29T16:21:20.286Z,28.04
2019-05-29T16:23:50.362Z,28.87
2019-05-29T16:26:21.452Z,29.83
2019-05-29T16:28:51.555Z,29.18
2019-05-29T16:31:22.922Z,29.89
2019-05-29T16:33:53.440Z,26.91
2019-05-29T16:36:23.516Z,28.40
2019-05-29T16:38:53.888Z,27.87
2019-05-29T16:41:23.972Z,27.59
2019-05-29T16:43:54.117Z,28.21
2019-05-29T16:46:24.766Z,28.77
2019-05-29T16:48:54.961Z,30.31
2019-05-29T16:51:25.079Z,30.09
2019-05-29T16:53:56.520Z,28.62
2019-05-29T16:56:26.595Z,30.78
2019-05-29T16:58:58.761Z,28.95
2019-05-29T17:01:28.856Z,29.32
2019-05-29T17:03:59.044Z,28.69
2019-05-29T17:06:52.511Z,27.50
2019-05-29T17:09:22.613Z,28.24
2019-05-29T17:11:52.699Z,28.13
2019-05-29T17:14:22.940Z,28.13
2019-05-29T17:16:53.237Z,29.73
2019-05-29T17:19:23.430Z,29.11
2019-05-29T17:21:53.553Z,28.93
2019-05-29T17:24:24.963Z,29.21
2019-05-29T17:27:07.406Z,28.71
2019-05-29T17:29:28.914Z,29.08
2019-05-29T17:31:59.016Z,29.61
2019-05-29T17:34:29.117Z,29.76
2019-05-29T17:36:59.284Z,29.57
2019-05-29T17:39:29.401Z,29.75
2019-05-29T17:41:59.515Z,29.35
2019-05-29T17:44:29.611Z,29.44
2019-05-29T17:46:59.741Z,30.64
2019-05-29T17:49:34.456Z,31.25
2019-05-29T17:52:01.711Z,30.74
2019-05-29T17:54:31.806Z,31.23
2019-05-29T17:57:02.078Z,32.64
2019-05-29T17:59:32.185Z,31.70
2019-05-29T18:02:02.531Z,33.10
2019-05-29T18:04:32.746Z,32.51
2019-05-29T18:07:02.896Z,34.21
2019-05-29T18:09:33.176Z,32.35
2019-05-29T18:12:03.284Z,32.85
2019-05-29T18:14:36.234Z,33.69
2019-05-29T18:17:06.377Z,34.23
2019-05-29T18:19:36.659Z,36.26
2019-05-29T18:22:06.781Z,36.57
2019-05-29T18:24:36.961Z,37.70
2019-05-29T18:27:07.113Z,36.24
2019-05-29T18:29:37.279Z,38.23
2019-05-29T18:32:09.265Z,38.35
2019-05-29T18:34:39.469Z,36.76
2019-05-29T18:37:09.632Z,37.81
2019-05-29T18:39:39.845Z,37.93
2019-05-29T18:42:09.962Z,38.37
2019-05-29T18:44:40.087Z,40.96
2019-05-29T18:47:13.266Z,39.70
2019-05-29T18:49:46.007Z,40.55
2019-05-29T18:52:35.306Z,40.66
2019-05-29T18:55:08.546Z,40.87
2019-05-29T18:57:38.725Z,40.76
2019-05-29T19:00:09.692Z,40.92
2019-05-29T19:02:39.871Z,42.49
2019-05-29T19:05:10.501Z,42.61
2019-05-29T19:07:45.375Z,42.83
2019-05-29T19:10:16.496Z,44.87
2019-05-29T19:12:46.623Z,46.03
2019-05-29T19:15:17.262Z,46.71
2019-05-29T19:17:47.409Z,45.18
2019-05-29T19:20:17.782Z,46.44
2019-05-29T19:22:50.728Z,47.93
2019-05-29T19:25:20.913Z,45.69
2019-05-29T19:27:51.190Z,45.28
2019-05-29T19:30:22.861Z,46.29
2019-05-29T19:32:53.256Z,47.34
2019-05-29T19:35:27.543Z,48.35
2019-05-29T19:37:57.939Z,48.84
2019-05-29T19:40:28.186Z,48.61
2019-05-29T19:42:58.370Z,49.14
2019-05-29T19:45:28.665Z,50.64
2019-05-29T19:47:58.797Z,49.75
2019-05-29T19:50:28.952Z,49.95
2019-05-29T19:52:59.026Z,51.97
2019-05-29T19:55:32.870Z,53.00
2019-05-29T19:58:01.116Z,53.18
2019-05-29T20:00:32.150Z,53.44
2019-05-29T20:03:02.430Z,53.52
2019-05-29T20:05:32.921Z,54.14
2019-05-29T20:08:03.043Z,53.71
2019-05-29T20:10:33.482Z,54.31
2019-05-29T20:13:03.585Z,53.38
2019-05-29T20:15:33.960Z,55.03
2019-05-29T20:18:04.334Z,56.03
2019-05-29T20:20:34.615Z,55.87
2019-05-29T20:23:04.733Z,56.24
2019-05-29T20:25:35.031Z,54.89
2019-05-29T20:28:10.647Z,56.42
2019-05-29T20:30:40.859Z,57.14
2019-05-29T20:33:11.174Z,58.76
2019-05-29T20:35:41.297Z,58.20
2019-05-29T20:38:11.448Z,58.89
2019-05-29T20:40:41.638Z,57.09
2019-05-29T20:43:11.882Z,57.45
2019-05-29T20:45:42.042Z,58.85
2019-05-29T20:48:12.199Z,58.23
2019-05-29T20:50:43.312Z,58.47
2019-05-29T20:53:13.654Z,56.37
2019-05-29T20:55:43.766Z,57.16
2019-05-29T20:58:24.501Z,56.37
2019-05-29T21:00:47.051Z,58.02
2019-05-29T21:03:17.338Z,59.93
2019-05-29T21:05:47.452Z,59.63
2019-05-29T21:08:17.600Z,59.80
2019-05-29T21:10:47.698Z,60.54
2019-05-29T21:13:17.845Z,60.16
2019-05-29T21:15:51.783Z,61.74
2019-05-29T21:18:21.946Z,62.38
2019-05-29T21:20:52.066Z,62.80
2019-05-29T21:23:22.173Z,61.84
2019-05-29T21:25:52.392Z,63.58
2019-05-29T21:28:22.491Z,63.36
2019-05-29T21:30:52.612Z,64.23
2019-05-29T21:33:22.755Z,62.99
2019-05-29T21:35:52.841Z,62.11
2019-05-29T21:38:22.973Z,61.73
2019-05-29T21:40:53.068Z,63.39
2019-05-29T21:43:23.175Z,63.18
2019-05-29T21:45:53.242Z,61.94
2019-05-29T21:48:23.519Z,61.76
2019-05-29T21:50:53.600Z,59.86
2019-05-29T21:53:23.719Z,62.58
2019-05-29T21:55:53.866Z,62.52
2019-05-29T21:58:23.974Z,63.93
2019-05-29T22:00:54.055Z,61.91
2019-05-29T22:03:24.139Z,60.18
2019-05-29T22:05:54.280Z,61.83
2019-05-29T22:08:24.384Z,62.63
2019-05-29T22:10:55.535Z,61.21
2019-05-29T22:13:25.754Z,59.60
2019-05-29T22:15:56.866Z,60.50
2019-05-29T22:18:27.044Z,58.56
2019-05-29T22:20:58.752Z,58.62
2019-05-29T22:23:29.202Z,58.13
2019-05-29T22:25:59.493Z,58.14
2019-05-29T22:28:29.650Z,57.84
2019-05-29T22:30:59.748Z,58.54
2019-05-29T22:33:29.848Z,60.65
2019-05-29T22:35:59.929Z,59.92
2019-05-29T22:38:30.013Z,59.13
2019-05-29T22:41:00.089Z,57.94
2019-05-29T22:43:30.178Z,59.40
2019-05-29T22:46:01.932Z,59.05
2019-05-29T22:48:32.169Z,58.43
2019-05-29T22:51:02.243Z,59.16
2019-05-29T22:53:32.371Z,60.74
2019-05-29T22:56:02.464Z,61.35
2019-05-29T22:58:32.570Z,62.63
2019-05-29T23:01:02.619Z,59.96
2019-05-29T23:03:32.782Z,60.04
2019-05-29T23:06:02.865Z,59.32
2019-05-29T23:08:32.964Z,60.06
2019-05-29T23:11:03.175Z,59.75
2019-05-29T23:13:33.237Z,58.51
2019-05-29T23:16:03.318Z,59.53
2019-05-29T23:18:33.427Z,60.04
2019-05-29T23:21:03.487Z,60.25
2019-05-29T23:23:33.590Z,60.14
2019-05-29T23:26:03.708Z,59.96
2019-05-29T23:28:33.834Z,61.56
2019-05-29T23:31:03.939Z,61.44
2019-05-29T23:33:34.000Z,61.57
2019-05-29T23:36:05.498Z,61.10
2019-05-29T23:38:35.535Z,61.47
2019-05-29T23:41:05.629Z,61.56
2019-05-29T23:43:35.743Z,61.74
2019-05-29T23:46:05.774Z,61.77
2019-05-29T23:48:35.873Z,62.06
2019-05-29T23:51:05.943Z,62.24
2019-05-29T23:53:36.013Z,62.40
2019-05-29T23:56:06.212Z,62.89
2019-05-29T23:58:36.270Z,62.54
